sensor_id;sensor_type;location;lat;lon;timestamp;pressure;altitude;pressure_sealevel;temperature
37452;BMP280;23314;51.114;6.900;2024-03-25T00:01:11;100306.16;;;7.84
37452;BMP280;23314;51.114;6.900;2024-03-25T00:03:36;100304.69;;;7.80
37452;BMP280;23314;51.114;6.900;2024-03-25T00:06:02;100299.00;;;7.78
37452;BMP280;23314;51.114;6.900;2024-03-25T00:08:27;100303.56;;;7.70
37452;BMP280;23314;51.114;6.900;2024-03-25T00:10:52;100306.28;;;7.66
37452;BMP280;23314;51.114;6.900;2024-03-25T00:13:18;100307.06;;;7.63
37452;BMP280;23314;51.114;6.900;2024-03-25T00:15:45;100304.41;;;7.63
37452;BMP280;23314;51.114;6.900;2024-03-25T00:18:10;100308.19;;;7.62
37452;BMP280;23314;51.114;6.900;2024-03-25T00:20:36;100302.88;;;7.62
37452;BMP280;23314;51.114;6.900;2024-03-25T00:23:02;100308.94;;;7.66
37452;BMP280;23314;51.114;6.900;2024-03-25T00:25:27;100301.34;;;7.68
37452;BMP280;23314;51.114;6.900;2024-03-25T00:27:52;100311.22;;;7.68
37452;BMP280;23314;51.114;6.900;2024-03-25T00:30:18;100307.78;;;7.67
37452;BMP280;23314;51.114;6.900;2024-03-25T00:32:44;100305.53;;;7.62
37452;BMP280;23314;51.114;6.900;2024-03-25T00:35:10;100299.47;;;7.62
37452;BMP280;23314;51.114;6.900;2024-03-25T00:37:35;100305.56;;;7.59
37452;BMP280;23314;51.114;6.900;2024-03-25T00:40:01;100302.56;;;7.56
37452;BMP280;23314;51.114;6.900;2024-03-25T00:42:26;100311.69;;;7.52
37452;BMP280;23314;51.114;6.900;2024-03-25T00:44:52;100302.19;;;7.47
37452;BMP280;23314;51.114;6.900;2024-03-25T00:47:17;100300.75;;;7.43
37452;BMP280;23314;51.114;6.900;2024-03-25T00:49:42;100310.59;;;7.38
37452;BMP280;23314;51.114;6.900;2024-03-25T00:52:08;100302.31;;;7.33
37452;BMP280;23314;51.114;6.900;2024-03-25T00:54:33;100306.13;;;7.28
37452;BMP280;23314;51.114;6.900;2024-03-25T00:56:58;100304.66;;;7.20
37452;BMP280;23314;51.114;6.900;2024-03-25T00:59:24;100303.53;;;7.14
37452;BMP280;23314;51.114;6.900;2024-03-25T01:01:49;100299.75;;;7.11
37452;BMP280;23314;51.114;6.900;2024-03-25T01:04:15;100292.59;;;7.08
37452;BMP280;23314;51.114;6.900;2024-03-25T01:06:40;100302.03;;;7.09
37452;BMP280;23314;51.114;6.900;2024-03-25T01:09:05;100297.09;;;7.11
37452;BMP280;23314;51.114;6.900;2024-03-25T01:11:33;100287.22;;;7.12
37452;BMP280;23314;51.114;6.900;2024-03-25T01:13:58;100287.63;;;7.10
37452;BMP280;23314;51.114;6.900;2024-03-25T01:16:24;100288.06;;;7.08
37452;BMP280;23314;51.114;6.900;2024-03-25T01:18:49;100289.53;;;7.09
37452;BMP280;23314;51.114;6.900;2024-03-25T01:21:14;100286.13;;;7.09
37452;BMP280;23314;51.114;6.900;2024-03-25T01:23:40;100278.59;;;7.07
37452;BMP280;23314;51.114;6.900;2024-03-25T01:26:06;100292.19;;;7.09
37452;BMP280;23314;51.114;6.900;2024-03-25T01:28:31;100290.72;;;7.08
37452;BMP280;23314;51.114;6.900;2024-03-25T01:30:57;100293.34;;;7.08
37452;BMP280;23314;51.114;6.900;2024-03-25T01:33:22;100298.66;;;7.08
37452;BMP280;23314;51.114;6.900;2024-03-25T01:35:47;100298.66;;;7.05
37452;BMP280;23314;51.114;6.900;2024-03-25T01:38:13;100304.34;;;7.00
37452;BMP280;23314;51.114;6.900;2024-03-25T01:40:38;100295.63;;;6.99
37452;BMP280;23314;51.114;6.900;2024-03-25T01:43:04;100293.78;;;6.96
37452;BMP280;23314;51.114;6.900;2024-03-25T01:45:31;100291.91;;;6.89
37452;BMP280;23314;51.114;6.900;2024-03-25T01:47:57;100290.03;;;6.79
37452;BMP280;23314;51.114;6.900;2024-03-25T01:50:24;100290.84;;;6.69
37452;BMP280;23314;51.114;6.900;2024-03-25T01:52:50;100292.34;;;6.63
37452;BMP280;23314;51.114;6.900;2024-03-25T01:55:18;100296.91;;;6.55
37452;BMP280;23314;51.114;6.900;2024-03-25T01:57:45;100293.13;;;6.52
37452;BMP280;23314;51.114;6.900;2024-03-25T02:00:11;100292.00;;;6.53
37452;BMP280;23314;51.114;6.900;2024-03-25T02:02:38;100295.38;;;6.57
37452;BMP280;23314;51.114;6.900;2024-03-25T02:05:07;100295.00;;;6.63
37452;BMP280;23314;51.114;6.900;2024-03-25T02:07:35;100290.41;;;6.70
37452;BMP280;23314;51.114;6.900;2024-03-25T02:10:03;100294.22;;;6.76
37452;BMP280;23314;51.114;6.900;2024-03-25T02:12:30;100287.75;;;6.81
37452;BMP280;23314;51.114;6.900;2024-03-25T02:14:55;100299.88;;;6.82
37452;BMP280;23314;51.114;6.900;2024-03-25T02:17:21;100295.34;;;6.75
37452;BMP280;23314;51.114;6.900;2024-03-25T02:19:46;100301.38;;;6.76
37452;BMP280;23314;51.114;6.900;2024-03-25T02:22:11;100303.28;;;6.79
37452;BMP280;23314;51.114;6.900;2024-03-25T02:24:38;100305.94;;;6.79
37452;BMP280;23314;51.114;6.900;2024-03-25T02:27:03;100302.53;;;6.79
37452;BMP280;23314;51.114;6.900;2024-03-25T02:29:35;100305.19;;;6.79
37452;BMP280;23314;51.114;6.900;2024-03-25T02:32:01;100299.50;;;6.76
37452;BMP280;23314;51.114;6.900;2024-03-25T02:34:26;100300.66;;;6.75
37452;BMP280;23314;51.114;6.900;2024-03-25T02:36:52;100308.59;;;6.79
37452;BMP280;23314;51.114;6.900;2024-03-25T02:39:18;100308.97;;;6.81
37452;BMP280;23314;51.114;6.900;2024-03-25T02:41:44;100304.44;;;6.82
37452;BMP280;23314;51.114;6.900;2024-03-25T02:44:09;100311.22;;;6.83
37452;BMP280;23314;51.114;6.900;2024-03-25T02:46:34;100305.91;;;6.83
37452;BMP280;23314;51.114;6.900;2024-03-25T02:49:00;100306.72;;;6.80
37452;BMP280;23314;51.114;6.900;2024-03-25T02:51:25;100308.22;;;6.81
37452;BMP280;23314;51.114;6.900;2024-03-25T02:53:50;100306.31;;;6.77
37452;BMP280;23314;51.114;6.900;2024-03-25T02:56:16;100302.16;;;6.76
37452;BMP280;23314;51.114;6.900;2024-03-25T02:58:41;100302.91;;;6.73
37452;BMP280;23314;51.114;6.900;2024-03-25T03:01:07;100293.06;;;6.70
37452;BMP280;23314;51.114;6.900;2024-03-25T03:03:32;100294.22;;;6.69
37452;BMP280;23314;51.114;6.900;2024-03-25T03:05:57;100295.72;;;6.70
37452;BMP280;23314;51.114;6.900;2024-03-25T03:08:23;100294.22;;;6.69
37452;BMP280;23314;51.114;6.900;2024-03-25T03:10:48;100288.53;;;6.71
37452;BMP280;23314;51.114;6.900;2024-03-25T03:13:13;100290.81;;;6.72
37452;BMP280;23314;51.114;6.900;2024-03-25T03:15:43;100294.97;;;6.73
37452;BMP280;23314;51.114;6.900;2024-03-25T03:18:09;100289.66;;;6.73
37452;BMP280;23314;51.114;6.900;2024-03-25T03:20:34;100284.38;;;6.70
37452;BMP280;23314;51.114;6.900;2024-03-25T03:22:59;100279.84;;;6.63
37452;BMP280;23314;51.114;6.900;2024-03-25T03:25:24;100286.28;;;6.58
37452;BMP280;23314;51.114;6.900;2024-03-25T03:27:50;100283.69;;;6.55
37452;BMP280;23314;51.114;6.900;2024-03-25T03:30:15;100281.78;;;6.48
37452;BMP280;23314;51.114;6.900;2024-03-25T03:32:40;100273.09;;;6.40
37452;BMP280;23314;51.114;6.900;2024-03-25T03:35:06;100285.59;;;6.36
37452;BMP280;23314;51.114;6.900;2024-03-25T03:37:32;100278.75;;;6.32
37452;BMP280;23314;51.114;6.900;2024-03-25T03:39:57;100277.66;;;6.25
37452;BMP280;23314;51.114;6.900;2024-03-25T03:42:22;100277.25;;;6.20
37452;BMP280;23314;51.114;6.900;2024-03-25T03:44:48;100285.97;;;6.17
37452;BMP280;23314;51.114;6.900;2024-03-25T03:47:13;100277.66;;;6.11
37452;BMP280;23314;51.114;6.900;2024-03-25T03:49:38;100272.38;;;6.11
37452;BMP280;23314;51.114;6.900;2024-03-25T03:52:04;100276.50;;;6.15
37452;BMP280;23314;51.114;6.900;2024-03-25T03:54:29;100274.63;;;6.20
37452;BMP280;23314;51.114;6.900;2024-03-25T03:56:54;100276.91;;;6.21
37452;BMP280;23314;51.114;6.900;2024-03-25T03:59:20;100278.03;;;6.20
37452;BMP280;23314;51.114;6.900;2024-03-25T04:01:45;100275.78;;;6.11
37452;BMP280;23314;51.114;6.900;2024-03-25T04:04:10;100279.53;;;6.03
37452;BMP280;23314;51.114;6.900;2024-03-25T04:06:35;100283.72;;;5.93
37452;BMP280;23314;51.114;6.900;2024-03-25T04:09:01;100284.81;;;5.85
37452;BMP280;23314;51.114;6.900;2024-03-25T04:11:26;100289.75;;;5.76
37452;BMP280;23314;51.114;6.900;2024-03-25T04:13:51;100280.28;;;5.67
37452;BMP280;23314;51.114;6.900;2024-03-25T04:16:17;100286.31;;;5.61
37452;BMP280;23314;51.114;6.900;2024-03-25T04:18:43;100282.53;;;5.62
37452;BMP280;23314;51.114;6.900;2024-03-25T04:21:11;100285.19;;;5.65
37452;BMP280;23314;51.114;6.900;2024-03-25T04:23:37;100274.22;;;5.74
37452;BMP280;23314;51.114;6.900;2024-03-25T04:26:03;100280.69;;;5.84
37452;BMP280;23314;51.114;6.900;2024-03-25T04:28:31;100263.66;;;5.96
37452;BMP280;23314;51.114;6.900;2024-03-25T04:30:56;100271.97;;;6.02
37452;BMP280;23314;51.114;6.900;2024-03-25T04:33:22;100267.47;;;6.09
37452;BMP280;23314;51.114;6.900;2024-03-25T04:35:47;100276.91;;;6.14
37452;BMP280;23314;51.114;6.900;2024-03-25T04:38:15;100273.50;;;6.13
37452;BMP280;23314;51.114;6.900;2024-03-25T04:40:41;100274.28;;;6.10
37452;BMP280;23314;51.114;6.900;2024-03-25T04:43:06;100275.00;;;6.00
37452;BMP280;23314;51.114;6.900;2024-03-25T04:45:32;100277.25;;;5.91
37452;BMP280;23314;51.114;6.900;2024-03-25T04:47:57;100285.97;;;5.80
37452;BMP280;23314;51.114;6.900;2024-03-25T04:50:22;100284.44;;;5.68
37452;BMP280;23314;51.114;6.900;2024-03-25T04:52:48;100291.63;;;5.61
37452;BMP280;23314;51.114;6.900;2024-03-25T04:55:13;100299.16;;;5.51
37452;BMP280;23314;51.114;6.900;2024-03-25T04:57:38;100288.53;;;5.41
37452;BMP280;23314;51.114;6.900;2024-03-25T05:00:04;100290.41;;;5.29
37452;BMP280;23314;51.114;6.900;2024-03-25T05:02:30;100293.34;;;5.20
37452;BMP280;23314;51.114;6.900;2024-03-25T05:04:55;100289.19;;;5.12
37452;BMP280;23314;51.114;6.900;2024-03-25T05:07:20;100284.59;;;5.05
37452;BMP280;23314;51.114;6.900;2024-03-25T05:09:46;100283.09;;;4.97
37452;BMP280;23314;51.114;6.900;2024-03-25T05:12:11;100283.44;;;4.92
37452;BMP280;23314;51.114;6.900;2024-03-25T05:14:36;100281.53;;;4.89
37452;BMP280;23314;51.114;6.900;2024-03-25T05:17:02;100276.63;;;4.87
37452;BMP280;23314;51.114;6.900;2024-03-25T05:19:29;100279.97;;;4.84
37452;BMP280;23314;51.114;6.900;2024-03-25T05:21:54;100276.56;;;4.84
37452;BMP280;23314;51.114;6.900;2024-03-25T05:24:20;100282.25;;;4.82
37452;BMP280;23314;51.114;6.900;2024-03-25T05:26:45;100281.13;;;4.80
37452;BMP280;23314;51.114;6.900;2024-03-25T05:29:10;100278.44;;;4.76
37452;BMP280;23314;51.114;6.900;2024-03-25T05:31:36;100287.81;;;4.70
37452;BMP280;23314;51.114;6.900;2024-03-25T05:34:02;100293.09;;;4.66
37452;BMP280;23314;51.114;6.900;2024-03-25T05:36:33;100283.28;;;4.63
37452;BMP280;23314;51.114;6.900;2024-03-25T05:38:58;100288.16;;;4.61
37452;BMP280;23314;51.114;6.900;2024-03-25T05:41:25;100286.25;;;4.58
37452;BMP280;23314;51.114;6.900;2024-03-25T05:43:50;100286.25;;;4.58
37452;BMP280;23314;51.114;6.900;2024-03-25T05:46:15;100285.88;;;4.56
37452;BMP280;23314;51.114;6.900;2024-03-25T05:48:41;100287.41;;;4.57
37452;BMP280;23314;51.114;6.900;2024-03-25T05:51:06;100291.16;;;4.56
37452;BMP280;23314;51.114;6.900;2024-03-25T05:53:35;100297.19;;;4.56
37452;BMP280;23314;51.114;6.900;2024-03-25T05:56:01;100291.91;;;4.56
37452;BMP280;23314;51.114;6.900;2024-03-25T05:58:27;100290.78;;;4.57
37452;BMP280;23314;51.114;6.900;2024-03-25T06:00:53;100295.34;;;4.61
37452;BMP280;23314;51.114;6.900;2024-03-25T06:03:19;100297.59;;;4.62
37452;BMP280;23314;51.114;6.900;2024-03-25T06:05:45;100296.84;;;4.65
37452;BMP280;23314;51.114;6.900;2024-03-25T06:08:11;100295.00;;;4.69
37452;BMP280;23314;51.114;6.900;2024-03-25T06:10:52;100292.78;;;4.75
37452;BMP280;23314;51.114;6.900;2024-03-25T06:13:18;100296.97;;;4.80
37452;BMP280;23314;51.114;6.900;2024-03-25T06:15:43;100293.56;;;4.83
37452;BMP280;23314;51.114;6.900;2024-03-25T06:18:08;100300.41;;;4.87
37452;BMP280;23314;51.114;6.900;2024-03-25T06:20:34;100300.06;;;4.96
37452;BMP280;23314;51.114;6.900;2024-03-25T06:22:59;100298.59;;;5.02
37452;BMP280;23314;51.114;6.900;2024-03-25T06:25:24;100292.97;;;5.11
37452;BMP280;23314;51.114;6.900;2024-03-25T06:27:50;100291.47;;;5.21
37452;BMP280;23314;51.114;6.900;2024-03-25T06:30:15;100296.84;;;5.35
37452;BMP280;23314;51.114;6.900;2024-03-25T06:32:59;100292.72;;;5.49
37452;BMP280;23314;51.114;6.900;2024-03-25T06:35:43;100288.59;;;5.62
37452;BMP280;23314;51.114;6.900;2024-03-25T06:38:09;100282.56;;;5.73
37452;BMP280;23314;51.114;6.900;2024-03-25T06:40:35;100275.78;;;5.82
37452;BMP280;23314;51.114;6.900;2024-03-25T06:43:01;100290.13;;;5.89
37452;BMP280;23314;51.114;6.900;2024-03-25T06:45:26;100285.59;;;5.93
37452;BMP280;23314;51.114;6.900;2024-03-25T06:47:51;100282.97;;;5.96
37452;BMP280;23314;51.114;6.900;2024-03-25T06:50:17;100290.88;;;6.00
37452;BMP280;23314;51.114;6.900;2024-03-25T06:52:42;100295.44;;;6.03
37452;BMP280;23314;51.114;6.900;2024-03-25T06:55:08;100290.16;;;6.10
37452;BMP280;23314;51.114;6.900;2024-03-25T06:57:33;100298.09;;;6.21
37452;BMP280;23314;51.114;6.900;2024-03-25T06:59:58;100292.00;;;6.32
37452;BMP280;23314;51.114;6.900;2024-03-25T07:02:24;100295.41;;;6.43
37452;BMP280;23314;51.114;6.900;2024-03-25T07:04:49;100305.22;;;6.53
37452;BMP280;23314;51.114;6.900;2024-03-25T07:07:14;100302.56;;;6.64
37452;BMP280;23314;51.114;6.900;2024-03-25T07:09:40;100303.28;;;6.75
37452;BMP280;23314;51.114;6.900;2024-03-25T07:12:06;100296.81;;;6.87
37452;BMP280;23314;51.114;6.900;2024-03-25T07:14:31;100304.72;;;6.98
37452;BMP280;23314;51.114;6.900;2024-03-25T07:16:57;100299.75;;;7.11
37452;BMP280;23314;51.114;6.900;2024-03-25T07:19:22;100298.97;;;7.21
37452;BMP280;23314;51.114;6.900;2024-03-25T07:21:47;100297.78;;;7.30
37452;BMP280;23314;51.114;6.900;2024-03-25T07:24:13;100298.50;;;7.41
37452;BMP280;23314;51.114;6.900;2024-03-25T07:26:38;100301.44;;;7.50
37452;BMP280;23314;51.114;6.900;2024-03-25T07:29:03;100295.69;;;7.63
37452;BMP280;23314;51.114;6.900;2024-03-25T07:31:28;100302.81;;;7.73
37452;BMP280;23314;51.114;6.900;2024-03-25T07:33:54;100301.22;;;7.86
37452;BMP280;23314;51.114;6.900;2024-03-25T07:36:19;100301.88;;;7.98
37452;BMP280;23314;51.114;6.900;2024-03-25T07:38:44;100299.84;;;8.13
37452;BMP280;23314;51.114;6.900;2024-03-25T07:41:10;100303.56;;;8.23
37452;BMP280;23314;51.114;6.900;2024-03-25T07:43:35;100301.19;;;8.32
37452;BMP280;23314;51.114;6.900;2024-03-25T07:46:00;100307.56;;;8.42
37452;BMP280;23314;51.114;6.900;2024-03-25T07:48:25;100305.94;;;8.51
37452;BMP280;23314;51.114;6.900;2024-03-25T07:50:51;100303.16;;;8.62
37452;BMP280;23314;51.114;6.900;2024-03-25T07:53:16;100309.50;;;8.72
37452;BMP280;23314;51.114;6.900;2024-03-25T07:55:41;100312.03;;;8.83
37452;BMP280;23314;51.114;6.900;2024-03-25T07:58:07;100316.06;;;8.95
37452;BMP280;23314;51.114;6.900;2024-03-25T08:00:32;100309.13;;;9.05
37452;BMP280;23314;51.114;6.900;2024-03-25T08:02:59;100321.47;;;9.19
37452;BMP280;23314;51.114;6.900;2024-03-25T08:05:25;100312.97;;;9.31
37452;BMP280;23314;51.114;6.900;2024-03-25T08:07:50;100324.97;;;9.43
37452;BMP280;23314;51.114;6.900;2024-03-25T08:10:17;100329.81;;;9.48
37452;BMP280;23314;51.114;6.900;2024-03-25T08:12:42;100336.16;;;9.58
37452;BMP280;23314;51.114;6.900;2024-03-25T08:15:08;100334.06;;;9.69
37452;BMP280;23314;51.114;6.900;2024-03-25T08:17:33;100341.94;;;9.76
37452;BMP280;23314;51.114;6.900;2024-03-25T08:19:58;100346.34;;;9.87
37452;BMP280;23314;51.114;6.900;2024-03-25T08:22:24;100332.53;;;9.95
37452;BMP280;23314;51.114;6.900;2024-03-25T08:24:49;100340.59;;;9.92
37452;BMP280;23314;51.114;6.900;2024-03-25T08:27:14;100340.47;;;9.99
37452;BMP280;23314;51.114;6.900;2024-03-25T08:29:40;100338.94;;;10.22
37452;BMP280;23314;51.114;6.900;2024-03-25T08:32:06;100339.09;;;10.55
37452;BMP280;23314;51.114;6.900;2024-03-25T08:34:31;100333.03;;;10.91
37452;BMP280;23314;51.114;6.900;2024-03-25T08:36:57;100335.53;;;11.18
37452;BMP280;23314;51.114;6.900;2024-03-25T08:39:22;100336.72;;;11.50
37452;BMP280;23314;51.114;6.900;2024-03-25T08:41:47;100352.59;;;11.57
37452;BMP280;23314;51.114;6.900;2024-03-25T08:44:13;100346.50;;;11.73
37452;BMP280;23314;51.114;6.900;2024-03-25T08:46:39;100349.56;;;11.88
37452;BMP280;23314;51.114;6.900;2024-03-25T08:49:04;100356.97;;;11.97
37452;BMP280;23314;51.114;6.900;2024-03-25T08:51:29;100352.34;;;11.98
37452;BMP280;23314;51.114;6.900;2024-03-25T08:53:55;100356.22;;;11.97
37452;BMP280;23314;51.114;6.900;2024-03-25T08:56:20;100363.22;;;11.90
37452;BMP280;23314;51.114;6.900;2024-03-25T08:58:45;100371.69;;;11.89
37452;BMP280;23314;51.114;6.900;2024-03-25T09:01:11;100373.69;;;12.01
37452;BMP280;23314;51.114;6.900;2024-03-25T09:03:39;100376.34;;;12.01
37452;BMP280;23314;51.114;6.900;2024-03-25T09:06:06;100366.28;;;12.05
37452;BMP280;23314;51.114;6.900;2024-03-25T09:08:32;100367.03;;;12.22
37452;BMP280;23314;51.114;6.900;2024-03-25T09:11:17;100379.69;;;12.35
37452;BMP280;23314;51.114;6.900;2024-03-25T09:13:43;100390.84;;;12.17
37452;BMP280;23314;51.114;6.900;2024-03-25T09:16:08;100374.22;;;12.26
37452;BMP280;23314;51.114;6.900;2024-03-25T09:18:33;100382.44;;;12.48
37452;BMP280;23314;51.114;6.900;2024-03-25T09:20:59;100394.53;;;12.52
37452;BMP280;23314;51.114;6.900;2024-03-25T09:23:24;100399.16;;;12.35
37452;BMP280;23314;51.114;6.900;2024-03-25T09:25:53;100404.88;;;12.21
37452;BMP280;23314;51.114;6.900;2024-03-25T09:28:18;100395.69;;;12.22
37452;BMP280;23314;51.114;6.900;2024-03-25T09:30:44;100384.72;;;12.33
37452;BMP280;23314;51.114;6.900;2024-03-25T09:33:09;100387.06;;;12.31
37452;BMP280;23314;51.114;6.900;2024-03-25T09:35:34;100390.25;;;12.26
37452;BMP280;23314;51.114;6.900;2024-03-25T09:38:00;100389.53;;;12.25
37452;BMP280;23314;51.114;6.900;2024-03-25T09:40:26;100384.22;;;12.21
37452;BMP280;23314;51.114;6.900;2024-03-25T09:43:01;100395.53;;;12.13
37452;BMP280;23314;51.114;6.900;2024-03-25T09:45:29;100392.97;;;12.09
37452;BMP280;23314;51.114;6.900;2024-03-25T09:47:55;100392.28;;;12.05
37452;BMP280;23314;51.114;6.900;2024-03-25T09:50:22;100383.94;;;12.03
37452;BMP280;23314;51.114;6.900;2024-03-25T09:52:48;100385.63;;;11.97
37452;BMP280;23314;51.114;6.900;2024-03-25T09:55:14;100391.81;;;11.94
37452;BMP280;23314;51.114;6.900;2024-03-25T09:57:39;100382.28;;;11.93
37452;BMP280;23314;51.114;6.900;2024-03-25T10:00:07;100386.53;;;11.90
37452;BMP280;23314;51.114;6.900;2024-03-25T10:02:38;100379.25;;;11.90
37452;BMP280;23314;51.114;6.900;2024-03-25T10:05:05;100382.03;;;12.03
37452;BMP280;23314;51.114;6.900;2024-03-25T10:07:30;100376.81;;;12.13
37452;BMP280;23314;51.114;6.900;2024-03-25T10:09:56;100384.53;;;12.11
37452;BMP280;23314;51.114;6.900;2024-03-25T10:12:21;100374.13;;;12.13
37452;BMP280;23314;51.114;6.900;2024-03-25T10:14:47;100372.97;;;12.14
37452;BMP280;23314;51.114;6.900;2024-03-25T10:17:13;100371.47;;;12.13
37452;BMP280;23314;51.114;6.900;2024-03-25T10:19:39;100372.16;;;12.17
37452;BMP280;23314;51.114;6.900;2024-03-25T10:22:05;100372.38;;;12.22
37452;BMP280;23314;51.114;6.900;2024-03-25T10:24:45;100368.53;;;12.23
37452;BMP280;23314;51.114;6.900;2024-03-25T10:27:18;100363.75;;;12.31
37452;BMP280;23314;51.114;6.900;2024-03-25T10:29:45;100369.44;;;12.33
37452;BMP280;23314;51.114;6.900;2024-03-25T10:32:13;100358.94;;;12.39
37452;BMP280;23314;51.114;6.900;2024-03-25T10:34:40;100358.41;;;12.44
37452;BMP280;23314;51.114;6.900;2024-03-25T10:37:08;100348.59;;;12.41
37452;BMP280;23314;51.114;6.900;2024-03-25T10:39:39;100353.19;;;12.41
37452;BMP280;23314;51.114;6.900;2024-03-25T10:42:05;100345.84;;;12.58
37452;BMP280;23314;51.114;6.900;2024-03-25T10:44:30;100342.97;;;12.78
37452;BMP280;23314;51.114;6.900;2024-03-25T10:47:03;100342.88;;;12.81
37452;BMP280;23314;51.114;6.900;2024-03-25T10:52:02;100334.84;;;12.94
37452;BMP280;23314;51.114;6.900;2024-03-25T10:54:30;100337.59;;;12.91
37452;BMP280;23314;51.114;6.900;2024-03-25T10:56:58;100338.81;;;12.90
37452;BMP280;23314;51.114;6.900;2024-03-25T10:59:24;100330.69;;;12.93
37452;BMP280;23314;51.114;6.900;2024-03-25T11:01:49;100331.75;;;13.09
37452;BMP280;23314;51.114;6.900;2024-03-25T11:04:15;100325.41;;;13.15
37452;BMP280;23314;51.114;6.900;2024-03-25T11:06:42;100335.47;;;13.24
37452;BMP280;23314;51.114;6.900;2024-03-25T11:09:07;100331.38;;;13.32
37452;BMP280;23314;51.114;6.900;2024-03-25T11:11:33;100328.56;;;13.49
37452;BMP280;23314;51.114;6.900;2024-03-25T11:14:02;100325.41;;;13.76
37452;BMP280;23314;51.114;6.900;2024-03-25T11:16:31;100317.72;;;14.10
37452;BMP280;23314;51.114;6.900;2024-03-25T11:19:03;100318.47;;;14.32
37452;BMP280;23314;51.114;6.900;2024-03-25T11:21:29;100323.03;;;14.54
37452;BMP280;23314;51.114;6.900;2024-03-25T11:23:54;100321.34;;;14.47
37452;BMP280;23314;51.114;6.900;2024-03-25T11:26:26;100306.94;;;14.54
37452;BMP280;23314;51.114;6.900;2024-03-25T11:28:55;100306.06;;;14.66
37452;BMP280;23314;51.114;6.900;2024-03-25T11:31:21;100315.03;;;14.73
37452;BMP280;23314;51.114;6.900;2024-03-25T11:33:49;100306.78;;;14.89
37452;BMP280;23314;51.114;6.900;2024-03-25T11:36:15;100304.53;;;14.97
37452;BMP280;23314;51.114;6.900;2024-03-25T11:38:40;100298.25;;;14.91
37452;BMP280;23314;51.114;6.900;2024-03-25T11:41:10;100298.59;;;15.02
37452;BMP280;23314;51.114;6.900;2024-03-25T11:43:36;100296.22;;;15.13
37452;BMP280;23314;51.114;6.900;2024-03-25T11:46:01;100291.41;;;15.08
37452;BMP280;23314;51.114;6.900;2024-03-25T11:48:28;100288.13;;;14.95
37452;BMP280;23314;51.114;6.900;2024-03-25T11:50:54;100286.59;;;14.84
37452;BMP280;23314;51.114;6.900;2024-03-25T11:53:19;100286.16;;;14.77
37452;BMP280;23314;51.114;6.900;2024-03-25T11:55:47;100279.69;;;14.65
37452;BMP280;23314;51.114;6.900;2024-03-25T11:58:14;100272.44;;;14.84
37452;BMP280;23314;51.114;6.900;2024-03-25T12:00:46;100269.94;;;14.99
37452;BMP280;23314;51.114;6.900;2024-03-25T12:03:16;100262.94;;;15.11
37452;BMP280;23314;51.114;6.900;2024-03-25T12:05:44;100260.69;;;15.28
37452;BMP280;23314;51.114;6.900;2024-03-25T12:08:10;100261.00;;;15.30
37452;BMP280;23314;51.114;6.900;2024-03-25T12:10:37;100254.28;;;15.07
37452;BMP280;23314;51.114;6.900;2024-03-25T12:13:22;100255.75;;;14.98
37452;BMP280;23314;51.114;6.900;2024-03-25T12:15:48;100249.50;;;15.11
37452;BMP280;23314;51.114;6.900;2024-03-25T12:18:14;100245.00;;;15.08
37452;BMP280;23314;51.114;6.900;2024-03-25T12:20:40;100245.31;;;15.00
37452;BMP280;23314;51.114;6.900;2024-03-25T12:23:07;100238.91;;;15.07
37452;BMP280;23314;51.114;6.900;2024-03-25T12:25:32;100239.19;;;15.09
37452;BMP280;23314;51.114;6.900;2024-03-25T12:27:57;100233.97;;;15.15
37452;BMP280;23314;51.114;6.900;2024-03-25T12:30:23;100225.16;;;15.14
37452;BMP280;23314;51.114;6.900;2024-03-25T12:32:48;100213.38;;;15.02
37452;BMP280;23314;51.114;6.900;2024-03-25T12:35:16;100213.97;;;14.88
37452;BMP280;23314;51.114;6.900;2024-03-25T12:37:42;100207.13;;;14.87
37452;BMP280;23314;51.114;6.900;2024-03-25T12:40:24;100199.34;;;14.80
37452;BMP280;23314;51.114;6.900;2024-03-25T12:42:52;100189.88;;;14.57
37452;BMP280;23314;51.114;6.900;2024-03-25T12:45:18;100197.78;;;14.51
37452;BMP280;23314;51.114;6.900;2024-03-25T12:47:44;100206.91;;;14.63
37452;BMP280;23314;51.114;6.900;2024-03-25T12:50:09;100196.16;;;14.63
37452;BMP280;23314;51.114;6.900;2024-03-25T12:52:34;100190.91;;;14.50
37452;BMP280;23314;51.114;6.900;2024-03-25T12:55:00;100201.22;;;14.51
37452;BMP280;23314;51.114;6.900;2024-03-25T12:57:25;100198.84;;;14.53
37452;BMP280;23314;51.114;6.900;2024-03-25T12:59:50;100193.16;;;14.61
37452;BMP280;23314;51.114;6.900;2024-03-25T13:02:16;100194.25;;;14.63
37452;BMP280;23314;51.114;6.900;2024-03-25T13:04:41;100191.06;;;14.56
37452;BMP280;23314;51.114;6.900;2024-03-25T13:07:08;100190.34;;;14.55
37452;BMP280;23314;51.114;6.900;2024-03-25T13:09:33;100184.69;;;14.62
37452;BMP280;23314;51.114;6.900;2024-03-25T13:11:59;100176.97;;;14.64
37452;BMP280;23314;51.114;6.900;2024-03-25T13:14:25;100172.47;;;14.61
37452;BMP280;23314;51.114;6.900;2024-03-25T13:16:50;100161.84;;;14.58
37452;BMP280;23314;51.114;6.900;2024-03-25T13:19:15;100154.69;;;14.45
37452;BMP280;23314;51.114;6.900;2024-03-25T13:21:41;100148.25;;;14.43
37452;BMP280;23314;51.114;6.900;2024-03-25T13:24:07;100147.69;;;14.39
37452;BMP280;23314;51.114;6.900;2024-03-25T13:26:32;100133.81;;;14.40
37452;BMP280;23314;51.114;6.900;2024-03-25T13:28:57;100122.78;;;14.47
37452;BMP280;23314;51.114;6.900;2024-03-25T13:31:24;100123.25;;;14.55
37452;BMP280;23314;51.114;6.900;2024-03-25T13:33:49;100122.06;;;14.56
37452;BMP280;23314;51.114;6.900;2024-03-25T13:36:14;100116.09;;;14.61
37452;BMP280;23314;51.114;6.900;2024-03-25T13:38:40;100119.06;;;14.73
37452;BMP280;23314;51.114;6.900;2024-03-25T13:41:05;100109.22;;;14.69
37452;BMP280;23314;51.114;6.900;2024-03-25T13:43:31;100099.84;;;14.65
37452;BMP280;23314;51.114;6.900;2024-03-25T13:45:56;100097.13;;;14.56
37452;BMP280;23314;51.114;6.900;2024-03-25T13:48:22;100103.28;;;14.56
37452;BMP280;23314;51.114;6.900;2024-03-25T13:50:48;100102.97;;;14.54
37452;BMP280;23314;51.114;6.900;2024-03-25T13:53:14;100096.84;;;14.53
37452;BMP280;23314;51.114;6.900;2024-03-25T13:55:39;100100.25;;;14.45
37452;BMP280;23314;51.114;6.900;2024-03-25T13:58:04;100100.25;;;14.45
37452;BMP280;23314;51.114;6.900;2024-03-25T14:00:30;100080.59;;;14.39